Hopwood, Pennsylvania
Current Conditions -  °F | °C
As of 10:53 PM on Sunday 23 Nov 2014 (Local Time) from KMGW Reporting Station
Moderate Rain Moderate Rain  
Wind Chill: 57°   Ceiling: 7500
Heat Index: 57°   Visibility: 5mi
Dew Point: 50°   Wind: 13mph
Humidity: 77%   Direction: 130°SE
Pressure: 29.57"   Gusts: 25mph
Location:  39.88°N, 79.7°W
Report Text: KMGW 240353Z 13011G22KT 5SM RA OVC075 14/10 A2957 RMK AO2 PRESFR SLP007 P0007 T01390100
Loading
Personal Weather Stations






























Interactive Weather Map New forecast layout! Learn more

10-Day Weather Forecast

Advertisements
Track Severe Weather on mobile